createdAt,value
2023-04-28T00:00:04.640Z,97535.86
2023-04-28T00:02:54.368Z,97532.94
2023-04-28T00:05:25.360Z,97531.17
2023-04-28T00:07:53.944Z,97533.73
2023-04-28T00:10:21.915Z,97536.80
2023-04-28T00:12:49.890Z,97539.83
2023-04-28T00:15:17.974Z,97541.02
2023-04-28T00:17:45.903Z,97544.21
2023-04-28T00:20:14.022Z,97542.98
2023-04-28T00:22:42.105Z,97543.98
2023-04-28T00:25:10.484Z,97544.83
2023-04-28T00:27:38.465Z,97549.94
2023-04-28T00:30:06.958Z,97552.83
2023-04-28T00:32:35.094Z,97550.75
2023-04-28T00:35:03.747Z,97548.98
2023-04-28T00:37:31.877Z,97549.59
2023-04-28T00:39:59.859Z,97549.38
2023-04-28T00:42:27.839Z,97552.47
2023-04-28T00:44:55.918Z,97551.90
2023-04-28T00:47:24.180Z,97554.65
2023-04-28T00:49:53.189Z,97556.67
2023-04-28T00:52:21.374Z,97559.91
2023-04-28T00:54:49.445Z,97566.03
2023-04-28T00:57:18.050Z,97565.99
2023-04-28T00:59:46.313Z,97565.98
2023-04-28T01:02:18.645Z,97568.34
2023-04-28T01:04:47.276Z,97571.39
2023-04-28T01:07:15.867Z,97575.09
2023-04-28T01:09:44.358Z,97576.73
2023-04-28T01:12:14.372Z,97580.64
2023-04-28T01:14:44.689Z,97583.49
2023-04-28T01:17:12.780Z,97586.48
2023-04-28T01:19:41.773Z,97590.05
2023-04-28T01:22:15.578Z,97594.23
2023-04-28T01:24:44.884Z,97596.77
2023-04-28T01:27:14.089Z,97596.17
2023-04-28T01:29:42.977Z,97595.80
2023-04-28T01:32:11.276Z,97593.52
2023-04-28T01:34:40.774Z,97599.48
2023-04-28T01:37:09.257Z,97598.25
2023-04-28T01:39:38.351Z,97600.56
2023-04-28T01:42:06.535Z,97599.63
2023-04-28T01:44:35.134Z,97598.52
2023-04-28T01:47:03.007Z,97597.59
2023-04-28T01:49:30.982Z,97595.59
2023-04-28T01:51:59.053Z,97593.30
2023-04-28T01:54:27.630Z,97593.56
2023-04-28T01:56:56.000Z,97598.44
2023-04-28T01:59:24.170Z,97602.48
2023-04-28T02:01:52.317Z,97601.70
2023-04-28T02:04:20.894Z,97600.27
2023-04-28T02:06:48.944Z,97596.96
2023-04-28T02:09:16.811Z,97593.62
2023-04-28T02:11:44.892Z,97595.91
2023-04-28T02:14:12.940Z,97595.14
2023-04-28T02:16:41.147Z,97595.92
2023-04-28T02:19:09.426Z,97600.28
2023-04-28T02:21:37.391Z,97604.33
2023-04-28T02:24:05.679Z,97604.94
2023-04-28T02:26:33.954Z,97606.76
2023-04-28T02:29:04.454Z,97608.05
2023-04-28T02:31:34.026Z,97608.67
2023-04-28T02:34:02.128Z,97611.84
2023-04-28T02:36:29.945Z,97614.63
2023-04-28T02:38:58.230Z,97614.72
2023-04-28T02:41:30.295Z,97611.56
2023-04-28T02:43:58.262Z,97615.27
2023-04-28T02:46:26.470Z,97618.77
2023-04-28T02:48:54.483Z,97618.35
2023-04-28T02:51:22.591Z,97622.53
2023-04-28T02:53:50.883Z,97623.83
2023-04-28T02:56:18.854Z,97623.23
2023-04-28T02:58:46.939Z,97625.54
2023-04-28T03:01:14.966Z,97627.00
2023-04-28T03:03:43.183Z,97629.80
2023-04-28T03:06:11.673Z,97631.09
2023-04-28T03:08:39.747Z,97634.40
2023-04-28T03:11:07.693Z,97634.66
2023-04-28T03:13:36.405Z,97637.11
2023-04-28T03:16:04.979Z,97635.52
2023-04-28T03:18:33.510Z,97636.60
2023-04-28T03:21:01.768Z,97641.97
2023-04-28T03:23:29.812Z,97642.44
2023-04-28T03:25:57.811Z,97642.50
2023-04-28T03:28:26.637Z,97643.78
2023-04-28T03:30:54.683Z,97648.31
2023-04-28T03:33:22.667Z,97651.98
2023-04-28T03:35:51.052Z,97651.16
2023-04-28T03:38:19.842Z,97652.27
2023-04-28T03:40:48.317Z,97654.21
2023-04-28T03:43:16.298Z,97656.30
2023-04-28T03:46:05.334Z,97656.71
2023-04-28T03:48:34.337Z,97654.20
2023-04-28T03:51:03.552Z,97657.00
2023-04-28T03:53:32.548Z,97655.36
2023-04-28T03:56:00.423Z,97659.15
2023-04-28T03:58:28.784Z,97661.59
2023-04-28T04:00:56.801Z,97665.09
2023-04-28T04:03:27.299Z,97665.14
2023-04-28T04:05:57.532Z,97662.98
2023-04-28T04:08:25.822Z,97665.40
2023-04-28T04:10:56.148Z,97664.25
2023-04-28T04:13:24.223Z,97669.11
2023-04-28T04:15:53.170Z,97666.92
2023-04-28T04:18:22.935Z,97673.32
2023-04-28T04:21:17.414Z,97676.46
2023-04-28T04:23:46.149Z,97675.29
2023-04-28T04:26:14.031Z,97676.85
2023-04-28T04:28:42.149Z,97680.30
2023-04-28T04:31:10.775Z,97680.15
2023-04-28T04:33:39.018Z,97679.31
2023-04-28T04:36:08.223Z,97681.88
2023-04-28T04:38:36.302Z,97683.95
2023-04-28T04:41:13.169Z,97684.80
2023-04-28T04:43:41.561Z,97689.44
2023-04-28T04:46:09.596Z,97692.16
2023-04-28T04:48:37.500Z,97695.95
2023-04-28T04:51:05.581Z,97695.41
2023-04-28T04:53:33.656Z,97696.60
2023-04-28T04:56:02.887Z,97693.86
2023-04-28T04:58:31.451Z,97695.54
2023-04-28T05:01:12.432Z,97695.70
2023-04-28T05:03:40.402Z,97699.11
2023-04-28T05:06:08.679Z,97699.77
2023-04-28T05:08:47.703Z,97694.78
2023-04-28T05:11:16.382Z,97695.76
2023-04-28T05:13:45.698Z,97698.98
2023-04-28T05:16:13.899Z,97698.25
2023-04-28T05:18:56.382Z,97700.73
2023-04-28T05:21:24.252Z,97701.40
2023-04-28T05:23:53.896Z,97701.67
2023-04-28T05:26:22.852Z,97703.34
2023-04-28T05:28:54.522Z,97704.29
2023-04-28T05:31:22.529Z,97705.08
2023-04-28T05:33:52.108Z,97702.11
2023-04-28T05:36:20.514Z,97699.98
2023-04-28T05:38:48.467Z,97700.76
2023-04-28T05:41:16.581Z,97704.27
2023-04-28T05:43:46.451Z,97705.76
2023-04-28T05:46:28.288Z,97707.39
2023-04-28T05:48:58.253Z,97704.05
2023-04-28T05:51:27.378Z,97704.77
2023-04-28T05:53:55.444Z,97708.94
2023-04-28T05:56:24.144Z,97707.98
2023-04-28T05:58:52.102Z,97709.22
2023-04-28T06:01:20.084Z,97707.00
2023-04-28T06:03:48.142Z,97703.61
2023-04-28T06:06:16.607Z,97701.09
2023-04-28T06:08:44.820Z,97703.66
2023-04-28T06:11:12.891Z,97704.38
2023-04-28T06:13:41.088Z,97703.70
2023-04-28T06:16:09.875Z,97705.23
2023-04-28T06:18:38.456Z,97709.70
2023-04-28T06:21:06.644Z,97706.79
2023-04-28T06:23:34.906Z,97707.14
2023-04-28T06:26:02.860Z,97710.02
2023-04-28T06:28:30.868Z,97707.98
2023-04-28T06:31:00.072Z,97712.43
2023-04-28T06:33:28.138Z,97708.13
2023-04-28T06:35:56.524Z,97708.46
2023-04-28T06:38:24.615Z,97706.39
2023-04-28T06:40:52.795Z,97701.55
2023-04-28T06:43:21.774Z,97702.38
2023-04-28T06:46:15.964Z,97701.61
2023-04-28T06:48:44.026Z,97701.42
2023-04-28T06:51:11.878Z,97700.49
2023-04-28T06:53:40.187Z,97703.89
2023-04-28T06:56:11.368Z,97704.88
2023-04-28T06:58:39.894Z,97700.21
2023-04-28T07:01:07.955Z,97702.40
2023-04-28T07:03:36.402Z,97698.77
2023-04-28T07:06:04.760Z,97699.39
2023-04-28T07:08:32.850Z,97697.32
2023-04-28T07:11:04.726Z,97697.44
2023-04-28T07:13:33.468Z,97693.61
2023-04-28T07:16:01.669Z,97692.71
2023-04-28T07:18:29.978Z,97696.94
2023-04-28T07:20:58.054Z,97697.71
2023-04-28T07:23:25.899Z,97702.11
2023-04-28T07:25:53.768Z,97701.69
2023-04-28T07:28:21.660Z,97700.06
2023-04-28T07:30:49.509Z,97707.02
2023-04-28T07:33:17.496Z,97709.70
2023-04-28T07:35:45.471Z,97708.23
2023-04-28T07:38:13.635Z,97706.28
2023-04-28T07:40:43.458Z,97703.77
2023-04-28T07:43:11.221Z,97706.46
2023-04-28T07:45:40.105Z,97702.27
2023-04-28T07:48:08.657Z,97705.64
2023-04-28T07:50:36.902Z,97708.64
2023-04-28T07:53:04.854Z,97706.51
2023-04-28T07:55:33.074Z,97705.52
2023-04-28T07:58:01.848Z,97704.09
2023-04-28T08:00:29.603Z,97706.75
2023-04-28T08:02:57.890Z,97703.22
2023-04-28T08:05:26.479Z,97699.30
2023-04-28T08:07:54.748Z,97693.54
2023-04-28T08:10:22.921Z,97683.95
2023-04-28T08:12:51.514Z,97683.33
2023-04-28T08:15:19.564Z,97683.05
2023-04-28T08:17:47.720Z,97686.06
2023-04-28T08:20:16.059Z,97685.91
2023-04-28T08:22:44.023Z,97686.30
2023-04-28T08:25:11.869Z,97685.12
2023-04-28T08:27:40.284Z,97686.38
2023-04-28T08:30:08.566Z,97688.52
2023-04-28T08:32:36.684Z,97685.83
2023-04-28T08:35:05.337Z,97684.00
2023-04-28T08:37:33.310Z,97684.64
2023-04-28T08:40:10.066Z,97683.88
2023-04-28T08:42:38.674Z,97683.79
2023-04-28T08:45:06.954Z,97675.95
2023-04-28T08:47:36.284Z,97671.18
2023-04-28T08:50:05.461Z,97660.41
2023-04-28T08:52:34.026Z,97674.05
2023-04-28T08:55:06.002Z,97670.96
2023-04-28T08:57:43.406Z,97661.38
2023-04-28T09:00:11.784Z,97661.05
2023-04-28T09:02:42.443Z,97662.36
2023-04-28T09:05:12.102Z,97652.27
2023-04-28T09:07:41.006Z,97653.02
2023-04-28T09:10:19.550Z,97655.52
2023-04-28T09:12:49.167Z,97654.90
2023-04-28T09:15:46.496Z,97657.58
2023-04-28T09:18:14.986Z,97654.03
2023-04-28T09:20:44.626Z,97650.91
2023-04-28T09:23:17.778Z,97649.06
2023-04-28T09:26:05.388Z,97645.01
2023-04-28T09:28:34.399Z,97640.75
2023-04-28T09:31:02.873Z,97637.75
2023-04-28T09:33:30.994Z,97629.73
2023-04-28T09:35:58.934Z,97630.18
2023-04-28T09:38:27.016Z,97629.91
2023-04-28T09:40:55.062Z,97629.46
2023-04-28T09:43:24.488Z,97628.55
2023-04-28T09:45:54.054Z,97622.79
2023-04-28T09:48:35.529Z,97621.98
2023-04-28T09:51:07.746Z,97617.92
2023-04-28T09:53:35.844Z,97613.86
2023-04-28T09:56:05.478Z,97612.65
2023-04-28T09:58:35.572Z,97611.16
2023-04-28T10:01:06.191Z,97610.61
2023-04-28T10:03:34.648Z,97609.69
2023-04-28T10:06:02.830Z,97605.88
2023-04-28T10:08:30.961Z,97604.63
2023-04-28T10:10:59.339Z,97602.87
2023-04-28T10:13:27.320Z,97604.59
2023-04-28T10:15:55.954Z,97598.86
2023-04-28T10:18:25.105Z,97595.86
2023-04-28T10:20:58.920Z,97584.42
2023-04-28T10:23:47.058Z,97584.70
2023-04-28T10:26:18.603Z,97581.35
2023-04-28T10:28:47.494Z,97579.73
2023-04-28T10:31:16.819Z,97573.09
2023-04-28T10:33:44.983Z,97569.04
2023-04-28T10:36:36.214Z,97568.44
2023-04-28T10:39:14.374Z,97573.31
2023-04-28T10:41:42.410Z,97575.92
2023-04-28T10:44:29.098Z,97572.05
2023-04-28T10:47:01.206Z,97565.34
2023-04-28T10:49:47.947Z,97564.55
2023-04-28T10:52:40.987Z,97564.42
2023-04-28T10:55:27.293Z,97554.38
2023-04-28T10:58:14.085Z,97548.41
2023-04-28T11:00:43.188Z,97547.59
2023-04-28T11:03:30.329Z,97537.91
2023-04-28T11:06:17.706Z,97535.33
2023-04-28T11:08:45.682Z,97526.02
2023-04-28T11:11:21.627Z,97528.69
2023-04-28T11:13:50.561Z,97539.59
2023-04-28T11:16:20.725Z,97531.64
2023-04-28T11:18:55.121Z,97525.73
2023-04-28T11:21:25.201Z,97522.45
2023-04-28T11:23:53.274Z,97522.36
2023-04-28T11:26:21.465Z,97527.80
2023-04-28T11:28:50.761Z,97524.91
2023-04-28T11:31:20.837Z,97517.05
2023-04-28T11:33:54.386Z,97517.10
2023-04-28T11:36:26.566Z,97513.16
2023-04-28T11:38:56.304Z,97511.48
2023-04-28T11:41:24.651Z,97513.81
2023-04-28T11:43:53.146Z,97512.48
2023-04-28T11:46:22.373Z,97507.75
2023-04-28T11:49:01.160Z,97511.19
2023-04-28T11:51:33.563Z,97501.17
2023-04-28T11:54:02.524Z,97504.27
2023-04-28T11:56:32.145Z,97500.17
2023-04-28T11:59:01.890Z,97498.24
2023-04-28T12:01:33.127Z,97494.14
2023-04-28T12:04:01.414Z,97493.75
2023-04-28T12:06:29.972Z,97498.64
2023-04-28T12:08:58.261Z,97492.52
2023-04-28T12:11:26.641Z,97492.16
2023-04-28T12:14:04.851Z,97490.79
2023-04-28T12:16:44.868Z,97487.36
2023-04-28T12:19:13.163Z,97485.45
2023-04-28T12:21:41.559Z,97483.78
2023-04-28T12:24:16.849Z,97476.38
2023-04-28T12:26:44.858Z,97469.71
2023-04-28T12:29:31.780Z,97464.04
2023-04-28T12:31:59.864Z,97456.95
2023-04-28T12:34:29.684Z,97460.00
2023-04-28T12:36:58.113Z,97458.81
2023-04-28T12:39:27.270Z,97455.77
2023-04-28T12:41:55.327Z,97445.64
2023-04-28T12:44:23.216Z,97439.77
2023-04-28T12:46:51.797Z,97429.80
2023-04-28T12:49:19.775Z,97431.44
2023-04-28T12:51:47.756Z,97430.55
2023-04-28T12:54:15.825Z,97422.68
2023-04-28T12:56:43.807Z,97422.17
2023-04-28T12:59:12.100Z,97416.69
2023-04-28T13:01:40.459Z,97411.34
2023-04-28T13:04:09.850Z,97414.70
2023-04-28T13:06:38.448Z,97412.30
2023-04-28T13:09:06.640Z,97401.97
2023-04-28T13:11:34.857Z,97396.73
2023-04-28T13:14:04.005Z,97392.94
2023-04-28T13:16:31.942Z,97392.59
2023-04-28T13:19:00.800Z,97386.94
2023-04-28T13:21:28.770Z,97386.02
2023-04-28T13:23:57.046Z,97389.04
2023-04-28T13:26:24.932Z,97386.65
2023-04-28T13:28:52.997Z,97380.13
2023-04-28T13:31:21.207Z,97376.63
2023-04-28T13:33:49.168Z,97373.61
2023-04-28T13:36:17.338Z,97373.64
2023-04-28T13:38:48.988Z,97372.59
2023-04-28T13:41:17.378Z,97368.81
2023-04-28T13:43:45.338Z,97359.15
2023-04-28T13:46:13.587Z,97353.79
2023-04-28T13:48:41.602Z,97350.90
2023-04-28T13:51:09.886Z,97351.11
2023-04-28T13:53:38.669Z,97348.21
2023-04-28T13:56:06.962Z,97341.23
2023-04-28T13:58:35.230Z,97337.37
2023-04-28T14:01:04.607Z,97333.95
2023-04-28T14:03:32.894Z,97337.98
2023-04-28T14:06:01.617Z,97334.25
2023-04-28T14:08:29.588Z,97333.95
2023-04-28T14:10:57.670Z,97328.42
2023-04-28T14:13:25.757Z,97325.45
2023-04-28T14:15:59.593Z,97322.53
2023-04-28T14:18:28.436Z,97325.55
2023-04-28T14:20:56.558Z,97322.41
2023-04-28T14:23:24.522Z,97316.23
2023-04-28T14:25:56.100Z,97310.02
2023-04-28T14:28:24.236Z,97311.27
2023-04-28T14:30:54.090Z,97310.54
2023-04-28T14:33:22.019Z,97305.58
2023-04-28T14:35:50.012Z,97298.85
2023-04-28T14:38:17.986Z,97300.48
2023-04-28T14:40:45.947Z,97296.55
2023-04-28T14:43:14.230Z,97293.58
2023-04-28T14:45:42.186Z,97294.04
2023-04-28T14:48:10.992Z,97292.88
2023-04-28T14:50:38.969Z,97290.64
2023-04-28T14:53:07.813Z,97288.93
2023-04-28T14:55:35.835Z,97288.24
2023-04-28T14:58:04.565Z,97290.84
2023-04-28T15:00:32.818Z,97294.05
2023-04-28T15:03:01.041Z,97292.65
2023-04-28T15:05:29.268Z,97292.84
2023-04-28T15:07:57.756Z,97295.90
2023-04-28T15:10:30.951Z,97302.52
2023-04-28T15:12:58.926Z,97305.21
2023-04-28T15:15:27.610Z,97307.11
2023-04-28T15:18:00.738Z,97309.50
2023-04-28T15:20:33.467Z,97304.80
2023-04-28T15:23:01.780Z,97305.46
2023-04-28T15:25:29.755Z,97305.29
2023-04-28T15:27:57.617Z,97306.49
2023-04-28T15:30:25.802Z,97306.48
2023-04-28T15:32:53.863Z,97307.48
2023-04-28T15:35:22.349Z,97313.89
2023-04-28T15:37:52.248Z,97315.41
2023-04-28T15:40:21.508Z,97313.16
2023-04-28T15:42:49.659Z,97310.00
2023-04-28T15:45:19.062Z,97307.38
2023-04-28T15:47:48.360Z,97307.20
2023-04-28T15:50:18.773Z,97306.67
2023-04-28T15:52:48.621Z,97306.86
2023-04-28T15:55:17.715Z,97302.00
2023-04-28T15:57:46.416Z,97302.19
2023-04-28T16:00:15.617Z,97303.44
2023-04-28T16:02:44.723Z,97298.78
2023-04-28T16:05:13.435Z,97296.91
2023-04-28T16:07:41.805Z,97295.07
2023-04-28T16:10:11.623Z,97290.61
2023-04-28T16:12:40.218Z,97288.95
2023-04-28T16:15:09.590Z,97291.63
2023-04-28T16:17:38.822Z,97290.70
2023-04-28T16:20:08.009Z,97294.77
2023-04-28T16:22:36.899Z,97293.14
2023-04-28T16:25:05.391Z,97288.52
2023-04-28T16:27:33.844Z,97294.05
2023-04-28T16:30:02.049Z,97290.53
2023-04-28T16:32:30.695Z,97294.41
2023-04-28T16:34:58.733Z,97296.27
2023-04-28T16:37:26.796Z,97295.42
2023-04-28T16:39:55.673Z,97287.27
2023-04-28T16:42:23.769Z,97288.33
2023-04-28T16:44:53.018Z,97292.87
2023-04-28T16:47:21.892Z,97287.71
2023-04-28T16:49:50.168Z,97282.35
2023-04-28T16:52:18.274Z,97284.78
2023-04-28T16:54:46.398Z,97282.31
2023-04-28T16:57:14.285Z,97282.30
2023-04-28T16:59:42.344Z,97282.88
2023-04-28T17:02:10.500Z,97283.80
2023-04-28T17:04:38.890Z,97281.80
2023-04-28T17:07:07.593Z,97283.13
2023-04-28T17:09:35.818Z,97283.86
2023-04-28T17:12:03.925Z,97284.05
2023-04-28T17:14:32.238Z,97287.45
2023-04-28T17:17:00.300Z,97288.83
2023-04-28T17:19:28.189Z,97287.64
2023-04-28T17:21:56.371Z,97287.90
2023-04-28T17:24:24.444Z,97289.48
2023-04-28T17:26:52.665Z,97290.38
2023-04-28T17:29:22.218Z,97291.38
2023-04-28T17:31:50.459Z,97291.71
2023-04-28T17:34:20.114Z,97297.71
2023-04-28T17:36:48.411Z,97305.25
2023-04-28T17:39:16.684Z,97308.49
2023-04-28T17:41:45.377Z,97308.81
2023-04-28T17:44:13.558Z,97310.30
2023-04-28T17:46:42.615Z,97312.45
2023-04-28T17:49:11.055Z,97307.94
2023-04-28T17:51:38.953Z,97303.41
2023-04-28T17:54:09.697Z,97305.65
2023-04-28T17:56:38.625Z,97306.94
2023-04-28T17:59:08.368Z,97306.78
2023-04-28T18:01:36.342Z,97301.99
2023-04-28T18:04:04.412Z,97310.02
2023-04-28T18:06:32.306Z,97310.88
2023-04-28T18:09:00.439Z,97299.56
2023-04-28T18:11:28.332Z,97301.44
2023-04-28T18:13:58.206Z,97298.33
2023-04-28T18:16:26.584Z,97300.39
2023-04-28T18:18:54.500Z,97309.92
2023-04-28T18:21:22.513Z,97307.58
2023-04-28T18:23:50.416Z,97310.46
2023-04-28T18:26:18.739Z,97317.09
2023-04-28T18:28:48.168Z,97316.40
2023-04-28T18:31:16.358Z,97314.57
2023-04-28T18:33:45.108Z,97319.61
2023-04-28T18:36:13.417Z,97321.38
2023-04-28T18:38:41.404Z,97319.55
2023-04-28T18:41:17.349Z,97322.84
2023-04-28T18:43:45.304Z,97325.63
2023-04-28T18:46:15.859Z,97326.65
2023-04-28T18:48:44.310Z,97332.19
2023-04-28T18:51:15.672Z,97328.38
2023-04-28T18:53:43.553Z,97327.55
2023-04-28T18:56:13.562Z,97330.30
2023-04-28T18:58:41.866Z,97332.92
2023-04-28T19:01:14.406Z,97331.89
2023-04-28T19:03:43.038Z,97328.37
2023-04-28T19:06:12.067Z,97325.19
2023-04-28T19:08:40.146Z,97323.30
2023-04-28T19:11:09.801Z,97329.67
2023-04-28T19:13:38.286Z,97329.13
2023-04-28T19:16:06.565Z,97324.87
2023-04-28T19:18:34.504Z,97331.14
2023-04-28T19:21:04.352Z,97333.88
2023-04-28T19:23:35.808Z,97326.58
2023-04-28T19:26:03.912Z,97328.30
2023-04-28T19:28:31.864Z,97325.66
2023-04-28T19:31:00.067Z,97331.14
2023-04-28T19:33:28.513Z,97328.53
2023-04-28T19:35:56.969Z,97323.71
2023-04-28T19:38:24.904Z,97330.69
2023-04-28T19:41:02.043Z,97328.37
2023-04-28T19:43:31.002Z,97318.91
2023-04-28T19:45:59.391Z,97318.88
2023-04-28T19:48:27.425Z,97319.09
2023-04-28T19:50:55.637Z,97314.91
2023-04-28T19:53:24.303Z,97310.88
2023-04-28T19:55:52.272Z,97306.45
2023-04-28T19:58:20.955Z,97305.81
2023-04-28T20:00:49.034Z,97309.14
2023-04-28T20:03:17.542Z,97306.95
2023-04-28T20:05:46.243Z,97305.19
2023-04-28T20:08:14.389Z,97308.34
2023-04-28T20:10:42.582Z,97306.19
2023-04-28T20:13:11.052Z,97304.33
2023-04-28T20:15:39.191Z,97304.90
2023-04-28T20:18:07.559Z,97302.27
2023-04-28T20:20:35.700Z,97305.03
2023-04-28T20:23:03.696Z,97307.48
2023-04-28T20:25:35.529Z,97307.64
2023-04-28T20:28:03.363Z,97312.53
2023-04-28T20:30:31.480Z,97311.27
2023-04-28T20:32:59.630Z,97306.99
2023-04-28T20:35:28.048Z,97309.08
2023-04-28T20:37:55.859Z,97310.06
2023-04-28T20:40:23.682Z,97310.83
2023-04-28T20:42:51.532Z,97316.89
2023-04-28T20:45:19.730Z,97319.28
2023-04-28T20:47:48.030Z,97317.20
2023-04-28T20:50:16.295Z,97320.02
2023-04-28T20:52:44.158Z,97321.77
2023-04-28T20:55:12.544Z,97321.63
2023-04-28T20:57:40.615Z,97317.35
2023-04-28T21:00:09.103Z,97318.29
2023-04-28T21:02:37.996Z,97318.27
2023-04-28T21:05:06.395Z,97317.27
2023-04-28T21:07:34.366Z,97322.16
2023-04-28T21:10:02.359Z,97319.73
2023-04-28T21:12:30.411Z,97318.75
2023-04-28T21:15:00.713Z,97318.21
2023-04-28T21:17:28.658Z,97319.33
2023-04-28T21:19:57.524Z,97318.91
2023-04-28T21:22:25.371Z,97318.52
2023-04-28T21:24:54.691Z,97322.70
2023-04-28T21:27:22.858Z,97319.34
2023-04-28T21:29:51.363Z,97312.76
2023-04-28T21:32:19.401Z,97313.20
2023-04-28T21:34:48.943Z,97312.79
2023-04-28T21:37:16.992Z,97312.54
2023-04-28T21:39:44.980Z,97310.23
2023-04-28T21:42:13.067Z,97308.65
2023-04-28T21:44:41.131Z,97303.83
2023-04-28T21:47:09.256Z,97299.85
2023-04-28T21:49:37.583Z,97295.37
2023-04-28T21:52:05.474Z,97296.44
2023-04-28T21:54:33.437Z,97294.36
2023-04-28T21:57:02.242Z,97289.92
2023-04-28T21:59:30.175Z,97290.73
2023-04-28T22:01:59.202Z,97283.87
2023-04-28T22:04:27.963Z,97287.45
2023-04-28T22:06:56.174Z,97285.23
2023-04-28T22:09:24.352Z,97278.57
2023-04-28T22:11:52.439Z,97281.30
2023-04-28T22:14:38.674Z,97280.98
2023-04-28T22:17:08.786Z,97277.35
2023-04-28T22:19:36.925Z,97266.88
2023-04-28T22:22:04.748Z,97266.35
2023-04-28T22:24:32.974Z,97269.95
2023-04-28T22:27:00.935Z,97273.73
2023-04-28T22:29:29.030Z,97271.70
2023-04-28T22:31:58.751Z,97272.60
2023-04-28T22:34:26.811Z,97276.75
2023-04-28T22:36:55.300Z,97275.50
2023-04-28T22:39:25.271Z,97278.98
2023-04-28T22:41:53.309Z,97278.56
2023-04-28T22:44:21.573Z,97282.92
2023-04-28T22:46:49.782Z,97280.91
2023-04-28T22:49:17.717Z,97274.13
2023-04-28T22:51:45.606Z,97276.57
2023-04-28T22:54:13.782Z,97276.77
2023-04-28T22:56:41.958Z,97275.27
2023-04-28T22:59:10.010Z,97272.05
2023-04-28T23:01:38.278Z,97271.09
2023-04-28T23:04:07.095Z,97267.89
2023-04-28T23:06:35.500Z,97266.57
2023-04-28T23:09:03.761Z,97265.60
2023-04-28T23:11:31.689Z,97264.95
2023-04-28T23:13:59.627Z,97264.80
2023-04-28T23:16:27.617Z,97263.63
2023-04-28T23:18:55.971Z,97267.27
2023-04-28T23:21:23.846Z,97259.06
2023-04-28T23:23:51.718Z,97255.27
2023-04-28T23:26:21.638Z,97252.02
2023-04-28T23:28:49.597Z,97251.48
2023-04-28T23:31:17.847Z,97251.83
2023-04-28T23:33:45.977Z,97249.23
2023-04-28T23:36:13.939Z,97248.21
2023-04-28T23:38:42.225Z,97247.37
2023-04-28T23:41:10.097Z,97245.66
2023-04-28T23:43:38.278Z,97239.85
2023-04-28T23:46:06.942Z,97236.41
2023-04-28T23:48:35.144Z,97236.94
2023-04-28T23:51:03.116Z,97234.05
2023-04-28T23:53:30.998Z,97230.65
2023-04-28T23:55:58.866Z,97229.78
2023-04-28T23:58:26.735Z,97221.40
